»·PEaware :: N168JC CYVR-KLAX

N168JC :: CYVR-KLAX

FLIGHT INFORMATION

Flight Status: Arrived
Operator: Privately registered:
United States
More flights under this callsign
Pilot: Chris A. (85)
Aircraft: EMBRAER PHENOM 300
(E55P)
More flights by this aircraft type
Origin: CYVR Vancouver Intl
Canada
Destination: KLAX Los Angeles Intl
United States
More flights between these airports :: More routes between these airports
Route: YVR J5 SEA J65 LMT J189 LIN BURGL IRNMN1
File this flight plan on PilotEdge
Remarks: PBN / B2B3B4C1D1O1S2 DOF / 180416 SUR / 260B CODE / 050210
Altitude:
(Current/Filed)
41,000ft
Speed:
(Current/Filed)
418kts
Departed: 15-Apr-18 04:57 PM
Arrived: 15-Apr-18 07:35 PM
Distance/Time
Traveled:
940nm/2:38
Distance/Time
To Go:
Arrived

Flight Plot

Page will automatically refresh every two minutes.

Flight plan parsing failed; only flown route is shown


Map Options




Map Legend


Flown Route
Filed Route
Departure Airport
Arrival Airport
Navaid (VOR, NDB)
Fix

Horizontal Profiles

Position Reports

Time Latitude Longitude Heading Altitude Ground
Speed
15-Apr-18 16:55 49.079730 -123.161980 120 14817ft 230kts
15-Apr-18 16:56 49.022776 -123.117372 165 17676ft 248kts
15-Apr-18 16:57 48.954421 -123.084089 163 20191ft 264kts
15-Apr-18 16:58 48.884610 -123.047492 163 22672ft 265kts
15-Apr-18 16:59 48.815024 -123.011033 164 25077ft 261kts
15-Apr-18 17:00 48.747159 -122.975579 165 27321ft 255kts
15-Apr-18 17:01 48.678329 -122.939731 165 29022ft 263kts
15-Apr-18 17:02 48.609137 -122.903779 165 30824ft 261kts
15-Apr-18 17:03 48.541368 -122.868666 165 32609ft 254kts
15-Apr-18 17:04 48.474457 -122.834130 165 34079ft 254kts
15-Apr-18 17:05 48.407674 -122.799732 166 35469ft 252kts
15-Apr-18 17:06 48.341993 -122.765982 166 36853ft 246kts
15-Apr-18 17:07 48.278565 -122.733467 166 38216ft 232kts
15-Apr-18 17:08 48.220843 -122.703894 168 39517ft 201kts
15-Apr-18 17:09 48.169999 -122.678061 168 39994ft 194kts
15-Apr-18 17:10 48.125728 -122.655640 168 40097ft 207kts
15-Apr-18 17:11 48.068943 -122.626838 167 40339ft 225kts
15-Apr-18 17:12 48.006593 -122.595268 167 40676ft 247kts
15-Apr-18 17:13 47.936969 -122.560123 166 40737ft 278kts
15-Apr-18 17:14 47.859945 -122.521315 166 40723ft 306kts
15-Apr-18 17:15 47.775981 -122.479144 166 40716ft 329kts
15-Apr-18 17:16 47.671386 -122.426816 165 40709ft 350kts
15-Apr-18 17:17 47.593054 -122.387780 165 40705ft 363kts
15-Apr-18 17:18 47.495434 -122.339306 165 40701ft 375kts
15-Apr-18 17:19 47.393816 -122.303945 178 40694ft 378kts
15-Apr-18 17:20 47.287581 -122.291675 178 40691ft 385kts
15-Apr-18 17:21 47.179883 -122.278824 178 40686ft 392kts
15-Apr-18 17:22 47.070537 -122.265759 178 40683ft 397kts
15-Apr-18 17:23 46.959443 -122.252531 178 40684ft 402kts
15-Apr-18 17:24 46.847368 -122.239238 178 40682ft 406kts
15-Apr-18 17:25 46.734324 -122.225885 178 40680ft 409kts
15-Apr-18 17:26 46.620381 -122.212483 178 40676ft 410kts
15-Apr-18 17:27 46.506803 -122.199180 178 40672ft 410kts
15-Apr-18 17:28 46.392890 -122.185896 179 40672ft 409kts
15-Apr-18 17:29 46.279471 -122.172727 179 40672ft 409kts
15-Apr-18 17:30 46.166001 -122.159605 179 40658ft 409kts
15-Apr-18 17:31 46.052282 -122.146510 179 40663ft 409kts
15-Apr-18 17:32 45.938962 -122.133515 179 40661ft 409kts
15-Apr-18 17:33 45.825267 -122.120530 179 40659ft 409kts
15-Apr-18 17:34 45.711934 -122.107639 179 40655ft 409kts
15-Apr-18 17:35 45.598614 -122.094800 179 40654ft 408kts
15-Apr-18 17:36 45.485043 -122.081988 179 40653ft 408kts
15-Apr-18 17:37 45.371889 -122.069273 179 40652ft 408kts
15-Apr-18 17:38 45.258345 -122.056566 179 40652ft 408kts
15-Apr-18 17:39 45.145118 -122.043944 180 40645ft 408kts
15-Apr-18 17:40 45.032018 -122.031385 180 40642ft 407kts
15-Apr-18 17:41 44.918700 -122.018856 180 40640ft 407kts
15-Apr-18 17:42 44.805907 -122.006411 180 40651ft 406kts
15-Apr-18 17:43 44.693316 -121.994122 180 40633ft 405kts
15-Apr-18 17:44 44.580849 -121.981694 181 40637ft 404kts
15-Apr-18 17:45 44.469071 -121.969586 181 40653ft 403kts
15-Apr-18 17:46 44.356866 -121.957442 180 40655ft 403kts
15-Apr-18 17:47 44.245040 -121.945432 181 40645ft 404kts
15-Apr-18 17:48 44.133218 -121.933368 181 40653ft 403kts
15-Apr-18 17:49 44.021119 -121.921467 181 40683ft 403kts
15-Apr-18 17:50 43.909445 -121.909465 181 40692ft 403kts
15-Apr-18 17:51 43.797229 -121.897560 181 40706ft 403kts
15-Apr-18 17:52 43.685539 -121.885729 181 40685ft 402kts
15-Apr-18 17:53 43.573948 -121.873839 181 40698ft 402kts
15-Apr-18 17:54 43.462198 -121.862093 181 40701ft 401kts
15-Apr-18 17:55 43.351061 -121.850463 181 40708ft 400kts
15-Apr-18 17:56 43.240143 -121.838939 181 40717ft 400kts
15-Apr-18 17:57 43.129236 -121.827372 182 40733ft 398kts
15-Apr-18 17:58 43.018933 -121.815983 182 40738ft 398kts
15-Apr-18 17:59 42.908706 -121.804431 182 40744ft 397kts
15-Apr-18 18:00 42.798228 -121.793040 182 40745ft 396kts
15-Apr-18 18:01 42.688333 -121.781794 182 40741ft 396kts
15-Apr-18 18:02 42.578359 -121.770650 182 40733ft 395kts
15-Apr-18 18:03 42.468760 -121.759405 182 40739ft 395kts
15-Apr-18 18:04 42.359104 -121.748258 183 40739ft 395kts
15-Apr-18 18:05 42.249087 -121.737184 183 40749ft 395kts
15-Apr-18 18:06 42.139239 -121.725986 182 40735ft 397kts
15-Apr-18 18:07 42.028973 -121.704913 179 40716ft 400kts
15-Apr-18 18:08 41.919514 -121.683686 180 40755ft 399kts
15-Apr-18 18:09 41.809460 -121.663111 180 40777ft 398kts
15-Apr-18 18:10 41.699404 -121.642460 180 40754ft 399kts
15-Apr-18 18:11 41.589854 -121.622094 180 40763ft 397kts
15-Apr-18 18:12 41.480574 -121.602018 180 40756ft 396kts
15-Apr-18 18:13 41.371122 -121.581724 180 40762ft 395kts
15-Apr-18 18:14 41.262302 -121.561789 180 40767ft 395kts
15-Apr-18 18:15 41.153300 -121.541800 180 40781ft 394kts
15-Apr-18 18:16 41.044814 -121.521973 181 40763ft 394kts
15-Apr-18 18:17 40.936555 -121.502252 181 40761ft 393kts
15-Apr-18 18:18 40.827997 -121.482662 181 40780ft 392kts
15-Apr-18 18:19 40.719940 -121.462977 181 40771ft 392kts
15-Apr-18 18:20 40.612184 -121.443627 181 40782ft 391kts
15-Apr-18 18:21 40.504240 -121.424357 181 40815ft 390kts
15-Apr-18 18:22 40.396794 -121.405036 181 40815ft 390kts
15-Apr-18 18:23 40.288860 -121.385776 182 40830ft 391kts
15-Apr-18 18:24 40.181310 -121.366646 182 40836ft 390kts
15-Apr-18 18:25 40.073815 -121.347591 182 40845ft 390kts
15-Apr-18 18:26 39.966004 -121.328533 182 40850ft 389kts
15-Apr-18 18:27 39.858869 -121.309665 182 40863ft 388kts
15-Apr-18 18:28 39.751867 -121.290884 182 40874ft 388kts
15-Apr-18 18:29 39.644485 -121.272085 182 40880ft 388kts
15-Apr-18 18:30 39.537493 -121.253417 182 40883ft 388kts
15-Apr-18 18:31 39.430238 -121.234763 182 40896ft 388kts
15-Apr-18 18:32 39.323279 -121.216216 182 40900ft 388kts
15-Apr-18 18:33 39.216399 -121.197739 183 40905ft 387kts
15-Apr-18 18:34 39.109307 -121.179283 183 40909ft 387kts
15-Apr-18 18:35 39.002733 -121.160975 183 40921ft 386kts
15-Apr-18 18:36 38.895891 -121.142671 183 40924ft 386kts
15-Apr-18 18:37 38.789417 -121.124497 183 40932ft 387kts
15-Apr-18 18:38 38.682913 -121.106359 183 40934ft 386kts
15-Apr-18 18:39 38.576158 -121.088239 183 40942ft 386kts
15-Apr-18 18:40 38.469854 -121.070253 183 40941ft 386kts
15-Apr-18 18:41 38.363407 -121.052297 183 40939ft 386kts
15-Apr-18 18:42 38.256617 -121.034328 183 40934ft 386kts
15-Apr-18 18:43 38.150286 -121.016495 184 40930ft 386kts
15-Apr-18 18:44 38.043553 -120.992188 175 40926ft 400kts
15-Apr-18 18:45 37.937425 -120.951162 176 40923ft 399kts
15-Apr-18 18:46 37.831353 -120.910549 176 40919ft 398kts
15-Apr-18 18:47 37.724949 -120.869957 176 40915ft 398kts
15-Apr-18 18:48 37.618921 -120.829636 176 40913ft 398kts
15-Apr-18 18:49 37.512544 -120.789303 176 40915ft 398kts
15-Apr-18 18:50 37.406528 -120.749226 176 40916ft 398kts
15-Apr-18 18:51 37.300516 -120.709268 176 40915ft 398kts
15-Apr-18 18:52 37.194195 -120.669315 176 40916ft 398kts
15-Apr-18 18:53 37.088251 -120.629620 176 40918ft 398kts
15-Apr-18 18:54 36.982298 -120.590037 176 40920ft 398kts
15-Apr-18 18:55 36.875949 -120.550423 176 40927ft 398kts
15-Apr-18 18:56 36.769781 -120.510996 176 40920ft 399kts
15-Apr-18 18:57 36.663256 -120.471531 176 40910ft 398kts
15-Apr-18 18:58 36.557229 -120.432383 176 40909ft 398kts
15-Apr-18 18:59 36.451241 -120.393354 176 40909ft 397kts
15-Apr-18 19:00 36.344942 -120.354327 176 40912ft 397kts
15-Apr-18 19:01 36.239007 -120.315544 176 40911ft 397kts
15-Apr-18 19:02 36.132676 -120.276728 176 40916ft 397kts
15-Apr-18 19:03 36.026700 -120.238147 176 40925ft 397kts
15-Apr-18 19:04 35.920775 -120.199689 176 40936ft 397kts
15-Apr-18 19:05 35.814515 -120.161225 176 40956ft 397kts
15-Apr-18 19:06 35.708560 -120.122983 176 40965ft 397kts
15-Apr-18 19:07 35.605860 -120.062978 161 41001ft 423kts
15-Apr-18 19:08 35.505520 -119.986653 161 40985ft 423kts
15-Apr-18 19:09 35.405146 -119.911205 161 40986ft 424kts
15-Apr-18 19:10 35.303716 -119.835234 160 40165ft 430kts
15-Apr-18 19:11 35.206649 -119.747237 155 38161ft 434kts
15-Apr-18 19:12 35.111117 -119.658050 155 36166ft 431kts
15-Apr-18 19:13 35.018022 -119.571482 155 34207ft 430kts
15-Apr-18 19:14 34.922293 -119.482716 153 32211ft 435kts
15-Apr-18 19:15 34.825855 -119.395936 154 30214ft 421kts
15-Apr-18 19:16 34.733335 -119.313556 154 28207ft 403kts
15-Apr-18 19:17 34.644323 -119.235957 153 25988ft 402kts
15-Apr-18 19:18 34.569284 -119.171348 152 23871ft 407kts
15-Apr-18 19:19 34.478113 -119.090773 151 21275ft 401kts
15-Apr-18 19:20 34.390803 -119.014409 151 18735ft 388kts
15-Apr-18 19:21 34.293434 -118.928293 149 15725ft 351kts
15-Apr-18 19:22 34.217865 -118.859191 148 13229ft 334kts
15-Apr-18 19:23 34.147610 -118.793385 143 11308ft 297kts
15-Apr-18 19:24 34.097865 -118.737902 141 10088ft 299kts
15-Apr-18 19:25 34.038633 -118.669308 127 9065ft 285kts
15-Apr-18 19:26 34.022274 -118.576157 92 7996ft 285kts
15-Apr-18 19:27 34.024739 -118.489336 87 6527ft 251kts
15-Apr-18 19:28 34.028258 -118.407723 87 5024ft 239kts
15-Apr-18 19:29 34.031570 -118.328652 87 3522ft 233kts
15-Apr-18 19:30 34.006393 -118.275848 167 3148ft 180kts
15-Apr-18 19:31 33.967394 -118.299345 251 2990ft 149kts
15-Apr-18 19:32 33.958825 -118.345181 258 1956ft 126kts
15-Apr-18 19:33 33.953348 -118.386050 265 531ft 117kts
15-Apr-18 19:34 33.950611 -118.416562 259 129ft 29kts
15-Apr-18 19:35 33.949214 -118.419600 233 129ft 0kts
15-Apr-18 19:36 33.948523 -118.420703 233 129ft 15kts
15-Apr-18 19:37 33.946971 -118.420944 82 129ft 14kts
15-Apr-18 19:38 33.945076 -118.417972 173 129ft 17kts
15-Apr-18 19:39 33.939004 -118.417081 172 129ft 18kts
15-Apr-18 19:40 33.937269 -118.414619 105 129ft 7kts
15-Apr-18 19:41 33.936102 -118.412745 175 129ft 20kts
15-Apr-18 19:42 33.933370 -118.409653 81 129ft 17kts
15-Apr-18 19:43 33.934090 -118.402698 82 129ft 22kts
15-Apr-18 19:44 33.933811 -118.398303 228 129ft 6kts
15-Apr-18 19:45 33.932794 -118.398742 84 129ft 0kts
15-Apr-18 19:46 33.932794 -118.398742 84 129ft 0kts

Navigation Log

Ident Type
Flight plan parsing failed, navigation log unavailable